createdAt,value
2023-03-22T00:02:13.628Z,98604.72
2023-03-22T00:04:42.971Z,98594.09
2023-03-22T00:07:09.669Z,98589.09
2023-03-22T00:09:36.688Z,98576.63
2023-03-22T00:12:03.464Z,98571.63
2023-03-22T00:14:30.017Z,98572.69
2023-03-22T00:16:56.620Z,98564.53
2023-03-22T00:19:23.239Z,98567.97
2023-03-22T00:21:51.419Z,98564.53
2023-03-22T00:24:17.984Z,98564.00
2023-03-22T00:26:44.579Z,98541.22
2023-03-22T00:29:11.282Z,98544.75
2023-03-22T00:31:37.861Z,98524.66
2023-03-22T00:34:04.438Z,98522.53
2023-03-22T00:36:30.958Z,98522.22
2023-03-22T00:38:57.437Z,98513.78
2023-03-22T00:41:24.368Z,98505.31
2023-03-22T00:43:51.668Z,98501.88
2023-03-22T00:46:21.026Z,98496.88
2023-03-22T00:48:48.384Z,98488.94
2023-03-22T00:51:15.840Z,98482.56
2023-03-22T00:53:43.554Z,98486.75
2023-03-22T00:56:14.093Z,98478.59
2023-03-22T00:58:41.321Z,98487.34
2023-03-22T01:01:08.287Z,98467.44
2023-03-22T01:03:35.149Z,98477.25
2023-03-22T01:06:02.622Z,98479.91
2023-03-22T01:08:33.435Z,98471.66
2023-03-22T01:11:01.375Z,98453.09
2023-03-22T01:13:29.038Z,98462.91
2023-03-22T01:15:55.714Z,98448.31
2023-03-22T01:18:22.326Z,98436.31
2023-03-22T01:20:48.856Z,98436.31
2023-03-22T01:23:15.447Z,98437.94
2023-03-22T01:25:42.077Z,98437.94
2023-03-22T01:28:08.806Z,98430.75
2023-03-22T01:30:35.561Z,98424.38
2023-03-22T01:33:02.211Z,98396.50
2023-03-22T01:35:29.031Z,98415.28
2023-03-22T01:37:55.584Z,98395.66
2023-03-22T01:40:22.216Z,98395.34
2023-03-22T01:42:48.757Z,98396.13
2023-03-22T01:45:15.483Z,98389.47
2023-03-22T01:47:47.595Z,98372.78
2023-03-22T01:50:16.657Z,98379.66
2023-03-22T01:52:44.153Z,98367.97
2023-03-22T01:55:12.013Z,98360.78
2023-03-22T01:57:41.226Z,98358.66
2023-03-22T02:00:15.277Z,98359.75
2023-03-22T02:02:43.929Z,98355.22
2023-03-22T02:05:12.325Z,98346.97
2023-03-22T02:07:41.117Z,98352.00
2023-03-22T02:10:19.451Z,98338.44
2023-03-22T02:12:53.033Z,98341.09
2023-03-22T02:15:48.678Z,98337.34
2023-03-22T02:18:43.528Z,98334.69
2023-03-22T02:21:44.009Z,98335.47
2023-03-22T02:24:35.964Z,98326.47
2023-03-22T02:27:31.978Z,98331.78
2023-03-22T02:30:11.976Z,98335.22
2023-03-22T02:33:02.386Z,98322.22
2023-03-22T02:35:41.003Z,98321.94
2023-03-22T02:38:16.537Z,98317.44
2023-03-22T02:40:43.004Z,98316.66
2023-03-22T02:43:26.042Z,98320.88
2023-03-22T02:45:57.056Z,98307.59
2023-03-22T02:48:40.329Z,98297.78
2023-03-22T02:51:19.766Z,98297.78
2023-03-22T02:53:51.946Z,98298.56
2023-03-22T02:56:27.456Z,98292.22
2023-03-22T02:58:58.360Z,98297.50
2023-03-22T03:01:37.343Z,98287.69
2023-03-22T03:04:08.954Z,98278.94
2023-03-22T03:06:47.469Z,98291.13
2023-03-22T03:09:18.183Z,98286.59
2023-03-22T03:11:49.920Z,98291.59
2023-03-22T03:14:31.664Z,98274.91
2023-03-22T03:17:36.900Z,98287.38
2023-03-22T03:20:37.637Z,98274.13
2023-03-22T03:23:19.889Z,98262.44
2023-03-22T03:25:57.953Z,98270.91
2023-03-22T03:28:38.231Z,98262.94
2023-03-22T03:31:24.762Z,98270.31
2023-03-22T03:34:02.600Z,98247.31
2023-03-22T03:36:34.239Z,98235.34
2023-03-22T03:39:03.116Z,98226.59
2023-03-22T03:41:30.864Z,98222.56
2023-03-22T03:43:59.087Z,98209.59
2023-03-22T03:46:25.789Z,98197.13
2023-03-22T03:48:55.576Z,98186.22
2023-03-22T03:51:22.242Z,98188.88
2023-03-22T03:53:48.781Z,98172.66
2023-03-22T03:56:15.305Z,98184.38
2023-03-22T03:58:41.913Z,98210.56
2023-03-22T04:01:08.515Z,98214.81
2023-03-22T04:03:35.400Z,98212.16
2023-03-22T04:06:02.228Z,98199.69
2023-03-22T04:08:28.722Z,98197.81
2023-03-22T04:10:55.296Z,98180.81
2023-03-22T04:13:22.006Z,98196.44
2023-03-22T04:15:53.149Z,98195.66
2023-03-22T04:18:21.296Z,98198.81
2023-03-22T04:20:49.487Z,98179.44
2023-03-22T04:23:16.356Z,98198.03
2023-03-22T04:25:43.599Z,98203.81
2023-03-22T04:28:10.165Z,98207.22
2023-03-22T04:30:36.779Z,98206.44
2023-03-22T04:33:07.629Z,98214.41
2023-03-22T04:35:35.203Z,98224.44
2023-03-22T04:38:01.715Z,98226.59
2023-03-22T04:40:31.647Z,98223.66
2023-03-22T04:42:58.974Z,98233.19
2023-03-22T04:45:29.209Z,98238.47
2023-03-22T04:47:56.244Z,98247.22
2023-03-22T04:50:23.194Z,98249.59
2023-03-22T04:52:50.447Z,98244.28
2023-03-22T04:55:17.084Z,98243.47
2023-03-22T04:57:43.655Z,98241.63
2023-03-22T05:00:10.952Z,98245.34
2023-03-22T05:02:41.426Z,98250.66
2023-03-22T05:05:08.595Z,98256.75
2023-03-22T05:07:35.110Z,98261.00
2023-03-22T05:10:01.816Z,98262.03
2023-03-22T05:12:28.552Z,98246.13
2023-03-22T05:14:55.371Z,98250.06
2023-03-22T05:17:22.030Z,98244.28
2023-03-22T05:19:48.625Z,98251.16
2023-03-22T05:22:15.149Z,98250.06
2023-03-22T05:24:41.657Z,98247.72
2023-03-22T05:27:08.658Z,98256.75
2023-03-22T05:29:36.991Z,98261.00
2023-03-22T05:32:04.245Z,98262.84
2023-03-22T05:34:35.701Z,98267.84
2023-03-22T05:37:03.040Z,98275.03
2023-03-22T05:39:30.116Z,98275.31
2023-03-22T05:41:56.649Z,98292.03
2023-03-22T05:44:23.202Z,98295.47
2023-03-22T05:46:49.848Z,98277.19
2023-03-22T05:49:16.534Z,98287.78
2023-03-22T05:51:43.658Z,98280.91
2023-03-22T05:54:10.496Z,98299.78
2023-03-22T05:56:37.142Z,98302.53
2023-03-22T05:59:04.661Z,98302.34
2023-03-22T06:01:31.461Z,98309.59
2023-03-22T06:03:58.213Z,98314.19
2023-03-22T06:06:24.755Z,98325.69
2023-03-22T06:08:51.245Z,98324.66
2023-03-22T06:11:19.507Z,98339.41
2023-03-22T06:13:46.101Z,98338.41
2023-03-22T06:16:13.460Z,98332.28
2023-03-22T06:18:40.007Z,98336.59
2023-03-22T06:21:06.602Z,98350.72
2023-03-22T06:23:33.143Z,98356.41
2023-03-22T06:25:59.771Z,98354.81
2023-03-22T06:28:29.762Z,98373.16
2023-03-22T06:30:56.748Z,98375.31
2023-03-22T06:33:23.328Z,98381.19
2023-03-22T06:35:49.907Z,98383.34
2023-03-22T06:38:16.532Z,98378.63
2023-03-22T06:40:43.466Z,98390.56
2023-03-22T06:43:10.276Z,98394.09
2023-03-22T06:45:36.848Z,98400.25
2023-03-22T06:48:03.461Z,98410.06
2023-03-22T06:50:30.923Z,98415.91
2023-03-22T06:52:57.456Z,98412.75
2023-03-22T06:55:24.229Z,98416.25
2023-03-22T06:57:50.820Z,98416.63
2023-03-22T07:00:17.663Z,98424.34
2023-03-22T07:02:44.293Z,98426.47
2023-03-22T07:05:10.894Z,98429.47
2023-03-22T07:07:37.420Z,98439.06
2023-03-22T07:10:04.358Z,98433.56
2023-03-22T07:12:30.865Z,98446.78
2023-03-22T07:14:57.603Z,98440.75
2023-03-22T07:17:24.423Z,98457.72
2023-03-22T07:19:50.999Z,98456.94
2023-03-22T07:22:17.578Z,98469.69
2023-03-22T07:24:56.002Z,98482.13
2023-03-22T07:27:23.787Z,98476.31
2023-03-22T07:29:50.325Z,98469.22
2023-03-22T07:32:16.978Z,98484.38
2023-03-22T07:34:43.614Z,98478.78
2023-03-22T07:37:10.372Z,98485.66
2023-03-22T07:39:36.991Z,98493.59
2023-03-22T07:42:03.686Z,98497.00
2023-03-22T07:44:30.453Z,98495.91
2023-03-22T07:46:57.112Z,98508.38
2023-03-22T07:49:23.679Z,98511.00
2023-03-22T07:51:50.287Z,98513.13
2023-03-22T07:54:32.086Z,98499.72
2023-03-22T07:56:59.629Z,98502.84
2023-03-22T07:59:26.366Z,98511.25
2023-03-22T08:01:52.909Z,98513.03
2023-03-22T08:04:21.026Z,98522.28
2023-03-22T08:06:47.611Z,98508.19
2023-03-22T08:09:14.198Z,98524.78
2023-03-22T08:11:40.693Z,98524.47
2023-03-22T08:14:07.525Z,98514.88
2023-03-22T08:16:34.257Z,98523.28
2023-03-22T08:19:00.984Z,98519.78
2023-03-22T08:21:27.561Z,98515.78
2023-03-22T08:23:54.414Z,98526.63
2023-03-22T08:26:21.309Z,98518.59
2023-03-22T08:28:47.823Z,98530.22
2023-03-22T08:31:17.103Z,98518.75
2023-03-22T08:33:44.368Z,98534.03
2023-03-22T08:36:14.540Z,98526.03
2023-03-22T08:38:42.574Z,98532.28
2023-03-22T08:41:09.437Z,98522.09
2023-03-22T08:43:36.045Z,98527.25
2023-03-22T08:46:03.073Z,98517.88
2023-03-22T08:48:30.803Z,98521.19
2023-03-22T08:50:58.122Z,98527.91
2023-03-22T08:53:24.726Z,98517.91
2023-03-22T08:55:51.310Z,98520.66
2023-03-22T08:58:19.868Z,98518.06
2023-03-22T09:00:49.482Z,98527.44
2023-03-22T09:03:16.675Z,98523.22
2023-03-22T09:05:43.681Z,98534.97
2023-03-22T09:08:18.637Z,98545.41
2023-03-22T09:10:51.253Z,98541.19
2023-03-22T09:13:18.180Z,98542.78
2023-03-22T09:15:47.221Z,98533.56
2023-03-22T09:18:15.367Z,98533.84
2023-03-22T09:20:43.068Z,98542.88
2023-03-22T09:23:09.895Z,98544.78
2023-03-22T09:25:37.166Z,98547.75
2023-03-22T09:28:04.313Z,98540.81
2023-03-22T09:30:31.219Z,98538.09
2023-03-22T09:32:57.837Z,98531.97
2023-03-22T09:35:24.421Z,98536.75
2023-03-22T09:37:53.391Z,98539.38
2023-03-22T09:40:21.879Z,98545.75
2023-03-22T09:42:51.474Z,98550.81
2023-03-22T09:45:25.173Z,98537.44
2023-03-22T09:47:54.659Z,98537.66
2023-03-22T09:50:21.211Z,98529.59
2023-03-22T09:52:48.445Z,98525.91
2023-03-22T09:55:25.334Z,98531.91
2023-03-22T09:58:10.473Z,98534.47
2023-03-22T10:00:54.362Z,98531.22
2023-03-22T10:03:30.424Z,98542.88
2023-03-22T10:06:07.422Z,98524.03
2023-03-22T10:08:47.335Z,98520.78
2023-03-22T10:11:22.991Z,98519.69
2023-03-22T10:14:21.493Z,98526.03
2023-03-22T10:16:50.268Z,98526.81
2023-03-22T10:19:23.308Z,98537.19
2023-03-22T10:21:52.753Z,98535.00
2023-03-22T10:24:50.772Z,98526.81
2023-03-22T10:27:20.884Z,98530.25
2023-03-22T10:29:58.613Z,98535.72
2023-03-22T10:32:56.382Z,98538.06
2023-03-22T10:35:23.752Z,98540.28
2023-03-22T10:37:52.762Z,98528.78
2023-03-22T10:40:31.703Z,98525.75
2023-03-22T10:43:07.768Z,98533.78
2023-03-22T10:45:36.229Z,98537.06
2023-03-22T10:48:11.589Z,98539.69
2023-03-22T10:50:41.908Z,98520.00
2023-03-22T10:53:32.983Z,98537.28
2023-03-22T10:55:59.574Z,98521.84
2023-03-22T10:58:31.852Z,98523.69
2023-03-22T11:01:03.612Z,98522.09
2023-03-22T11:03:40.464Z,98533.53
2023-03-22T11:06:17.404Z,98535.34
2023-03-22T11:08:47.959Z,98546.78
2023-03-22T11:11:31.095Z,98538.53
2023-03-22T11:14:06.453Z,98541.31
2023-03-22T11:16:42.791Z,98531.84
2023-03-22T11:19:15.587Z,98532.28
2023-03-22T11:21:43.466Z,98532.09
2023-03-22T11:24:14.917Z,98527.66
2023-03-22T11:26:42.045Z,98532.50
2023-03-22T11:29:19.527Z,98523.47
2023-03-22T11:31:58.419Z,98521.03
2023-03-22T11:34:29.537Z,98512.00
2023-03-22T11:36:59.380Z,98532.81
2023-03-22T11:39:30.366Z,98519.06
2023-03-22T11:42:03.920Z,98521.75
2023-03-22T11:44:35.961Z,98527.88
2023-03-22T11:47:04.634Z,98517.28
2023-03-22T11:49:45.494Z,98522.47
2023-03-22T11:52:23.516Z,98519.25
2023-03-22T11:54:51.157Z,98513.34
2023-03-22T11:57:31.560Z,98512.94
2023-03-22T12:00:28.758Z,98518.78
2023-03-22T12:03:03.729Z,98511.56
2023-03-22T12:05:33.884Z,98509.56
2023-03-22T12:08:13.506Z,98510.13
2023-03-22T12:10:42.266Z,98506.00
2023-03-22T12:13:21.214Z,98502.19
2023-03-22T12:15:55.473Z,98506.91
2023-03-22T12:18:41.749Z,98499.41
2023-03-22T12:21:11.750Z,98490.03
2023-03-22T12:23:38.570Z,98488.47
2023-03-22T12:26:08.186Z,98471.22
2023-03-22T12:28:43.403Z,98487.31
2023-03-22T12:31:37.537Z,98466.03
2023-03-22T12:34:08.769Z,98461.00
2023-03-22T12:36:42.915Z,98462.44
2023-03-22T12:39:20.520Z,98470.91
2023-03-22T12:41:50.794Z,98461.66
2023-03-22T12:44:23.647Z,98456.25
2023-03-22T12:47:06.445Z,98453.84
2023-03-22T12:50:00.508Z,98452.13
2023-03-22T12:52:45.519Z,98441.13
2023-03-22T12:55:26.245Z,98432.69
2023-03-22T12:57:54.691Z,98438.16
2023-03-22T13:00:28.682Z,98422.47
2023-03-22T13:03:01.279Z,98407.31
2023-03-22T13:05:32.624Z,98408.00
2023-03-22T13:08:03.333Z,98411.38
2023-03-22T13:10:29.973Z,98407.91
2023-03-22T13:13:24.509Z,98409.38
2023-03-22T13:16:00.128Z,98410.84
2023-03-22T13:18:35.696Z,98414.22
2023-03-22T13:21:21.676Z,98429.41
2023-03-22T13:24:15.434Z,98425.31
2023-03-22T13:26:48.262Z,98425.75
2023-03-22T13:29:21.849Z,98430.56
2023-03-22T13:31:51.105Z,98424.47
2023-03-22T13:34:20.900Z,98412.91
2023-03-22T13:36:54.188Z,98414.94
2023-03-22T13:39:25.092Z,98424.56
2023-03-22T13:42:23.383Z,98426.50
2023-03-22T13:45:02.411Z,98426.16
2023-03-22T13:47:36.549Z,98441.56
2023-03-22T13:50:29.377Z,98442.22
2023-03-22T13:53:02.039Z,98435.84
2023-03-22T13:55:41.182Z,98432.88
2023-03-22T13:58:25.007Z,98428.88
2023-03-22T14:00:54.670Z,98426.00
2023-03-22T14:03:30.960Z,98423.53
2023-03-22T14:06:07.533Z,98427.94
2023-03-22T14:08:34.815Z,98415.41
2023-03-22T14:11:12.567Z,98432.13
2023-03-22T14:13:51.435Z,98425.09
2023-03-22T14:16:42.525Z,98425.03
2023-03-22T14:19:17.290Z,98415.69
